Time;durP1;ratioP1;P1;durP2;ratioP2;P2;SDS_P1;SDS_P2;PMS_P1;PMS_P2;Temp;Humidity;BMP_temperature;BMP_pressure;BME280_temperature;BME280_humidity;BME280_pressure;Samples;Min_cycle;Max_cycle;Signal;HPM_P1;HPM_P2
2023/10/13 00:00:40;;;;;;;23.17;16.40;;;;;;;;;;5060120;28;20416;-65
2023/10/13 00:03:14;;;;;;;24.73;15.57;;;;;;;;;;5060356;28;20421;-66
2023/10/13 00:05:42;;;;;;;24.08;15.85;;;;;;;;;;5059625;28;20458;-67
2023/10/13 00:08:09;;;;;;;21.45;15.77;;;;;;;;;;5060805;28;20832;-66
2023/10/13 00:10:36;;;;;;;23.85;16.05;;;;;;;;;;5062166;28;20412;-66
2023/10/13 00:13:11;;;;;;;21.43;15.40;;;;;;;;;;5059714;28;20488;-66
2023/10/13 00:15:46;;;;;;;23.50;15.70;;;;;;;;;;5059312;28;20505;-66
2023/10/13 00:18:13;;;;;;;22.27;15.32;;;;;;;;;;5050472;28;20503;-66
2023/10/13 00:20:46;;;;;;;23.30;15.73;;;;;;;;;;5050748;28;20409;-66
2023/10/13 00:23:14;;;;;;;22.33;15.25;;;;;;;;;;5062610;28;21008;-66
2023/10/13 00:25:49;;;;;;;21.73;14.95;;;;;;;;;;5067198;28;20415;-65
2023/10/13 00:28:24;;;;;;;20.27;14.75;;;;;;;;;;5059407;28;20491;-65
2023/10/13 00:30:58;;;;;;;21.83;14.10;;;;;;;;;;5058801;28;20555;-65
2023/10/13 00:33:27;;;;;;;24.95;14.82;;;;;;;;;;5060005;28;20412;-65
2023/10/13 00:35:57;;;;;;;19.30;14.55;;;;;;;;;;5059273;28;21039;-66
2023/10/13 00:38:24;;;;;;;19.20;13.97;;;;;;;;;;5063940;28;20449;-66
2023/10/13 00:40:55;;;;;;;21.73;14.05;;;;;;;;;;5060588;28;20439;-65
2023/10/13 00:43:35;;;;;;;20.65;13.80;;;;;;;;;;5063289;28;20953;-66
2023/10/13 00:46:07;;;;;;;20.95;13.45;;;;;;;;;;5060309;28;20417;-66
2023/10/13 00:48:42;;;;;;;19.17;14.52;;;;;;;;;;5059326;28;20848;-66
2023/10/13 00:51:12;;;;;;;21.52;14.52;;;;;;;;;;5058573;28;20895;-65
2023/10/13 00:53:41;;;;;;;21.35;14.88;;;;;;;;;;5061033;28;20414;-65
2023/10/13 00:56:08;;;;;;;18.73;14.32;;;;;;;;;;5061022;28;20426;-65
2023/10/13 00:58:35;;;;;;;21.23;13.98;;;;;;;;;;5061886;28;20473;-66
2023/10/13 01:01:17;;;;;;;18.60;13.95;;;;;;;;;;5059092;28;20409;-65
2023/10/13 01:03:45;;;;;;;21.17;14.00;;;;;;;;;;5049810;28;20405;-65
2023/10/13 01:06:12;;;;;;;19.33;14.40;;;;;;;;;;5049518;28;20397;-65
2023/10/13 01:08:39;;;;;;;20.95;14.23;;;;;;;;;;5049808;28;20413;-65
2023/10/13 01:11:07;;;;;;;18.52;13.82;;;;;;;;;;5058996;28;20409;-65
2023/10/13 01:13:36;;;;;;;18.88;13.82;;;;;;;;;;5063874;28;20422;-65
2023/10/13 01:16:04;;;;;;;21.85;14.20;;;;;;;;;;5058232;28;20428;-65
2023/10/13 01:18:31;;;;;;;23.67;13.90;;;;;;;;;;5061696;28;20439;-66
2023/10/13 01:20:59;;;;;;;18.48;13.77;;;;;;;;;;5060226;28;20413;-65
2023/10/13 01:23:37;;;;;;;20.70;14.18;;;;;;;;;;5061351;28;20424;-65
2023/10/13 01:26:05;;;;;;;18.08;13.85;;;;;;;;;;5061893;28;20958;-66
2023/10/13 01:28:44;;;;;;;20.15;14.02;;;;;;;;;;5061000;28;20415;-66
2023/10/13 01:31:11;;;;;;;21.52;13.98;;;;;;;;;;5060321;28;20524;-65
2023/10/13 01:33:38;;;;;;;19.77;12.77;;;;;;;;;;5058906;28;20420;-63
2023/10/13 01:36:07;;;;;;;20.67;12.77;;;;;;;;;;5063979;28;20480;-63
2023/10/13 01:38:37;;;;;;;18.67;12.68;;;;;;;;;;5064187;28;20442;-64
2023/10/13 01:41:05;;;;;;;19.85;13.00;;;;;;;;;;5062174;28;20818;-66
2023/10/13 01:43:32;;;;;;;18.85;12.85;;;;;;;;;;5065593;28;20416;-65
2023/10/13 01:45:58;;;;;;;18.08;13.20;;;;;;;;;;5062071;28;20463;-66
2023/10/13 01:48:25;;;;;;;17.10;12.30;;;;;;;;;;5064726;28;20411;-66
2023/10/13 01:50:55;;;;;;;18.90;12.75;;;;;;;;;;5062767;28;20471;-66
2023/10/13 01:53:22;;;;;;;20.13;12.93;;;;;;;;;;5063444;28;20883;-66
2023/10/13 01:55:50;;;;;;;19.17;13.13;;;;;;;;;;5062277;28;20423;-67
2023/10/13 01:58:22;;;;;;;19.67;13.65;;;;;;;;;;5063091;28;20413;-66
2023/10/13 02:00:48;;;;;;;18.73;14.27;;;;;;;;;;5061375;28;20421;-66
2023/10/13 02:03:16;;;;;;;18.90;13.77;;;;;;;;;;5063575;28;20869;-67
2023/10/13 02:05:47;;;;;;;20.88;14.40;;;;;;;;;;5063455;28;20473;-63
2023/10/13 02:08:17;;;;;;;19.25;14.27;;;;;;;;;;5061303;28;20895;-65
2023/10/13 02:10:44;;;;;;;20.13;13.35;;;;;;;;;;5062015;28;20403;-65
2023/10/13 02:13:17;;;;;;;22.23;14.18;;;;;;;;;;5064229;28;20422;-64
2023/10/13 02:15:44;;;;;;;19.03;14.20;;;;;;;;;;5053027;28;20504;-65
2023/10/13 02:18:11;;;;;;;18.85;14.45;;;;;;;;;;5052490;28;20508;-66
2023/10/13 02:20:42;;;;;;;21.30;14.85;;;;;;;;;;5052686;28;20409;-64
2023/10/13 02:23:10;;;;;;;21.50;14.73;;;;;;;;;;5058942;28;20502;-64
2023/10/13 02:25:42;;;;;;;20.88;14.35;;;;;;;;;;5064758;28;20477;-64
2023/10/13 02:28:13;;;;;;;19.37;14.03;;;;;;;;;;5052640;28;20488;-64
2023/10/13 02:30:44;;;;;;;21.73;14.75;;;;;;;;;;5052340;28;20934;-65
2023/10/13 02:33:11;;;;;;;22.35;15.40;;;;;;;;;;5057558;28;20500;-67
2023/10/13 02:35:41;;;;;;;20.60;14.68;;;;;;;;;;5062004;28;20415;-67
2023/10/13 02:38:11;;;;;;;20.77;14.80;;;;;;;;;;5063913;28;20462;-66
2023/10/13 02:40:37;;;;;;;25.35;14.77;;;;;;;;;;5062182;28;20429;-65
2023/10/13 02:43:05;;;;;;;21.70;14.45;;;;;;;;;;5061670;28;20413;-67
2023/10/13 02:45:32;;;;;;;20.88;14.55;;;;;;;;;;5063366;28;20842;-67
2023/10/13 02:48:16;;;;;;;20.50;14.15;;;;;;;;;;5061708;28;20484;-66
2023/10/13 02:50:43;;;;;;;18.33;14.18;;;;;;;;;;5052204;28;20416;-65
2023/10/13 02:53:13;;;;;;;18.63;13.67;;;;;;;;;;5058290;28;20789;-68
2023/10/13 02:55:39;;;;;;;19.95;13.55;;;;;;;;;;5064422;28;20461;-66
2023/10/13 02:58:08;;;;;;;20.30;12.95;;;;;;;;;;5062707;28;20526;-63
2023/10/13 03:00:40;;;;;;;17.03;13.13;;;;;;;;;;5062543;28;20415;-63
2023/10/13 03:03:07;;;;;;;17.25;13.27;;;;;;;;;;5060750;28;20405;-66
2023/10/13 03:05:38;;;;;;;16.73;12.95;;;;;;;;;;5061903;28;20969;-66
2023/10/13 03:08:06;;;;;;;19.25;12.90;;;;;;;;;;5063178;28;20970;-67
2023/10/13 03:10:33;;;;;;;22.33;13.00;;;;;;;;;;5060855;28;20974;-67
2023/10/13 03:12:59;;;;;;;20.50;12.90;;;;;;;;;;5061309;28;20421;-66
2023/10/13 03:15:30;;;;;;;18.33;13.40;;;;;;;;;;5062942;28;20415;-66
2023/10/13 03:17:58;;;;;;;21.13;13.00;;;;;;;;;;5060869;28;20432;-64
2023/10/13 03:20:31;;;;;;;21.23;13.98;;;;;;;;;;5060954;28;20775;-67
2023/10/13 03:22:58;;;;;;;17.42;13.70;;;;;;;;;;5056142;28;20411;-63
2023/10/13 03:25:29;;;;;;;20.02;14.48;;;;;;;;;;5066930;28;20901;-64
2023/10/13 03:28:04;;;;;;;20.33;14.60;;;;;;;;;;5063194;28;20882;-64
2023/10/13 03:30:35;;;;;;;21.23;15.32;;;;;;;;;;5062054;28;20400;-65
2023/10/13 03:33:06;;;;;;;21.08;15.02;;;;;;;;;;5059927;28;20413;-64
2023/10/13 03:35:39;;;;;;;18.52;15.40;;;;;;;;;;5060999;28;20412;-67
2023/10/13 03:38:14;;;;;;;23.38;16.60;;;;;;;;;;5062394;28;20447;-64
2023/10/13 03:40:41;;;;;;;22.05;15.80;;;;;;;;;;5061967;28;20411;-64
2023/10/13 03:43:10;;;;;;;21.15;15.68;;;;;;;;;;5059634;28;20405;-64
2023/10/13 03:45:39;;;;;;;20.05;15.13;;;;;;;;;;5061226;28;20412;-63
2023/10/13 03:48:09;;;;;;;24.15;16.48;;;;;;;;;;5061993;28;20411;-64
2023/10/13 03:50:46;;;;;;;23.88;16.98;;;;;;;;;;5050751;28;20822;-64
2023/10/13 03:53:13;;;;;;;24.63;17.63;;;;;;;;;;5057189;28;20841;-63
2023/10/13 03:55:40;;;;;;;23.20;16.55;;;;;;;;;;5062028;28;20461;-64
2023/10/13 03:58:10;;;;;;;25.30;16.63;;;;;;;;;;5059849;28;20427;-63
2023/10/13 04:00:38;;;;;;;23.50;16.85;;;;;;;;;;5061884;28;20880;-63
2023/10/13 04:03:09;;;;;;;25.42;17.45;;;;;;;;;;5059766;28;20425;-64
2023/10/13 04:05:40;;;;;;;24.87;17.63;;;;;;;;;;5059472;28;20440;-64
2023/10/13 04:16:47;;;;;;;23.38;17.60;;;;;;;;;;5058526;28;20521;-64
2023/10/13 04:19:22;;;;;;;24.47;16.97;;;;;;;;;;5059538;28;20409;-65
2023/10/13 04:21:58;;;;;;;26.73;16.77;;;;;;;;;;5058447;28;20466;-63
2023/10/13 04:24:39;;;;;;;20.63;16.27;;;;;;;;;;5064291;28;20508;-63
2023/10/13 04:30:02;;;;;;;23.73;17.23;;;;;;;;;;5060894;28;20901;-63
2023/10/13 04:32:28;;;;;;;22.77;16.55;;;;;;;;;;5064726;28;20411;-63
2023/10/13 04:34:59;;;;;;;25.52;16.98;;;;;;;;;;5066236;28;20763;-62
2023/10/13 04:37:30;;;;;;;23.35;16.55;;;;;;;;;;5060091;28;20467;-64
2023/10/13 04:40:08;;;;;;;24.45;17.25;;;;;;;;;;5058833;28;20509;-64
2023/10/13 04:42:50;;;;;;;24.02;16.77;;;;;;;;;;5058477;28;20424;-65
2023/10/13 04:45:38;;;;;;;25.05;16.85;;;;;;;;;;5058628;28;20437;-65
2023/10/13 04:48:17;;;;;;;22.48;16.35;;;;;;;;;;5060843;28;20407;-64
2023/10/13 04:50:45;;;;;;;27.85;17.42;;;;;;;;;;5060371;28;20453;-64
2023/10/13 04:53:33;;;;;;;23.85;16.55;;;;;;;;;;5061744;28;20492;-65
2023/10/13 04:56:52;;;;;;;25.63;16.55;;;;;;;;;;5061521;28;20785;-65
2023/10/13 05:04:37;;;;;;;21.58;15.38;;;;;;;;;;5059712;28;20397;-66
2023/10/13 05:49:29;;;;;;;24.77;15.73;;;;;;;;;;5058235;28;20918;-66
2023/10/13 05:51:58;;;;;;;22.80;15.02;;;;;;;;;;5060280;28;20403;-66
2023/10/13 06:30:22;;;;;;;17.85;11.55;;;;;;;;;;5063864;28;20909;-65
2023/10/13 06:32:51;;;;;;;17.37;11.60;;;;;;;;;;5060952;28;20405;-65
2023/10/13 06:35:23;;;;;;;17.60;10.85;;;;;;;;;;5062198;28;20407;-65
2023/10/13 06:37:51;;;;;;;16.38;10.38;;;;;;;;;;5063727;28;20502;-65
2023/10/13 06:40:32;;;;;;;18.67;11.15;;;;;;;;;;5061773;28;20470;-65
2023/10/13 06:43:12;;;;;;;16.63;10.68;;;;;;;;;;5061313;28;20414;-65
2023/10/13 06:45:39;;;;;;;15.90;11.05;;;;;;;;;;5060242;28;20416;-66
2023/10/13 06:48:11;;;;;;;19.30;11.63;;;;;;;;;;5062473;28;20412;-65
2023/10/13 06:50:41;;;;;;;17.73;12.13;;;;;;;;;;5063478;28;20419;-65
2023/10/13 06:53:12;;;;;;;17.77;11.20;;;;;;;;;;5056392;28;20407;-65
2023/10/13 06:55:39;;;;;;;21.17;13.27;;;;;;;;;;5064178;28;20412;-66
2023/10/13 06:58:13;;;;;;;18.00;13.57;;;;;;;;;;5063683;28;20426;-65
2023/10/13 07:00:41;;;;;;;21.08;13.48;;;;;;;;;;5062538;28;20524;-64
2023/10/13 07:03:17;;;;;;;20.90;14.20;;;;;;;;;;5060182;28;20983;-66
2023/10/13 07:05:47;;;;;;;21.73;13.43;;;;;;;;;;5061565;28;20439;-65
2023/10/13 07:08:19;;;;;;;20.37;13.17;;;;;;;;;;5063150;28;20407;-66
2023/10/13 07:10:51;;;;;;;18.88;13.10;;;;;;;;;;5061677;28;20900;-67
2023/10/13 07:13:19;;;;;;;18.73;12.88;;;;;;;;;;5060296;28;20412;-66
2023/10/13 07:15:47;;;;;;;20.73;13.33;;;;;;;;;;5061701;28;20492;-66
2023/10/13 07:18:17;;;;;;;21.65;13.48;;;;;;;;;;5061768;28;20430;-67
2023/10/13 07:20:47;;;;;;;16.83;12.73;;;;;;;;;;5060250;28;20401;-66
2023/10/13 07:23:19;;;;;;;20.52;12.43;;;;;;;;;;5061476;28;20412;-65
2023/10/13 07:25:53;;;;;;;21.60;11.82;;;;;;;;;;5063458;28;20439;-66
2023/10/13 07:28:20;;;;;;;16.98;11.25;;;;;;;;;;5061078;28;20412;-66
2023/10/13 07:31:11;;;;;;;18.77;11.00;;;;;;;;;;5062553;28;20410;-65
2023/10/13 07:33:40;;;;;;;19.75;11.00;;;;;;;;;;5061928;28;20990;-65
2023/10/13 07:36:15;;;;;;;18.83;10.32;;;;;;;;;;5061065;28;20409;-65
2023/10/13 07:38:43;;;;;;;19.77;10.48;;;;;;;;;;5059778;28;20429;-66
2023/10/13 07:41:15;;;;;;;18.50;10.57;;;;;;;;;;5061351;28;20403;-65
2023/10/13 07:43:42;;;;;;;17.75;10.60;;;;;;;;;;5062580;28;20502;-64
2023/10/13 07:46:10;;;;;;;17.88;9.88;;;;;;;;;;5059656;28;20933;-65
2023/10/13 07:48:38;;;;;;;22.38;10.63;;;;;;;;;;5060388;28;20410;-65
2023/10/13 07:51:10;;;;;;;18.98;10.00;;;;;;;;;;5067265;28;20519;-66
2023/10/13 07:53:40;;;;;;;14.73;9.55;;;;;;;;;;5071277;28;20414;-65
2023/10/13 07:56:08;;;;;;;14.63;9.38;;;;;;;;;;5071020;28;20419;-67
2023/10/13 07:58:47;;;;;;;14.30;8.40;;;;;;;;;;5062062;28;20427;-66
2023/10/13 08:01:17;;;;;;;19.63;8.30;;;;;;;;;;5061872;28;20415;-66
2023/10/13 08:03:44;;;;;;;14.63;8.38;;;;;;;;;;5060432;28;20512;-66
2023/10/13 08:06:20;;;;;;;15.97;8.20;;;;;;;;;;5059575;28;20421;-65
2023/10/13 08:08:49;;;;;;;17.60;8.07;;;;;;;;;;5059943;28;20488;-66
2023/10/13 08:11:26;;;;;;;15.48;7.97;;;;;;;;;;5059201;28;20417;-65
2023/10/13 08:13:55;;;;;;;14.23;8.00;;;;;;;;;;5050354;28;20417;-65
2023/10/13 08:16:23;;;;;;;18.38;8.05;;;;;;;;;;5050375;28;20520;-65
2023/10/13 08:18:50;;;;;;;16.48;8.60;;;;;;;;;;5050287;28;20541;-66
2023/10/13 08:21:22;;;;;;;18.15;7.93;;;;;;;;;;5050182;28;20409;-65
2023/10/13 08:23:59;;;;;;;15.35;7.30;;;;;;;;;;5061529;28;20443;-66
2023/10/13 08:26:57;;;;;;;17.98;7.80;;;;;;;;;;5064680;28;20466;-65
2023/10/13 08:32:35;;;;;;;16.45;6.75;;;;;;;;;;5061356;28;20391;-66
2023/10/13 08:35:22;;;;;;;17.15;7.05;;;;;;;;;;5059546;28;20409;-65
2023/10/13 08:38:03;;;;;;;19.15;7.03;;;;;;;;;;5059455;28;20498;-66
2023/10/13 08:40:56;;;;;;;19.77;7.30;;;;;;;;;;5058842;28;20495;-66
2023/10/13 08:43:24;;;;;;;16.17;7.32;;;;;;;;;;5059724;28;20405;-66
2023/10/13 08:45:58;;;;;;;13.55;6.20;;;;;;;;;;5058596;28;20432;-66
2023/10/13 08:48:31;;;;;;;16.85;6.70;;;;;;;;;;5059329;28;20783;-66
2023/10/13 08:51:04;;;;;;;11.98;6.15;;;;;;;;;;5058577;28;20413;-64
2023/10/13 08:53:44;;;;;;;16.00;6.55;;;;;;;;;;5063805;28;21306;-65
2023/10/13 08:56:17;;;;;;;11.57;6.07;;;;;;;;;;5064475;28;20529;-64
2023/10/13 09:01:38;;;;;;;12.05;6.00;;;;;;;;;;5060557;28;20882;-66
2023/10/13 09:04:21;;;;;;;17.77;6.67;;;;;;;;;;5059087;28;20834;-65
2023/10/13 09:07:00;;;;;;;15.25;6.28;;;;;;;;;;5058799;28;20981;-65
2023/10/13 09:09:34;;;;;;;15.50;5.85;;;;;;;;;;5057970;28;20405;-66
2023/10/13 09:12:09;;;;;;;14.35;5.80;;;;;;;;;;5059501;28;20415;-65
2023/10/13 09:14:37;;;;;;;14.77;6.05;;;;;;;;;;5049690;28;20911;-65
2023/10/13 09:17:12;;;;;;;14.00;5.90;;;;;;;;;;5049612;28;20413;-65
2023/10/13 09:19:48;;;;;;;11.70;5.93;;;;;;;;;;5058491;28;20425;-66
2023/10/13 09:22:26;;;;;;;11.80;5.88;;;;;;;;;;5058558;28;20417;-65
2023/10/13 09:24:55;;;;;;;16.52;6.00;;;;;;;;;;5064441;28;20443;-66
2023/10/13 09:27:26;;;;;;;16.10;6.30;;;;;;;;;;5059450;28;20413;-66
2023/10/13 09:29:56;;;;;;;13.03;5.83;;;;;;;;;;5060026;28;21162;-65
2023/10/13 09:32:23;;;;;;;15.95;6.10;;;;;;;;;;5055823;28;20436;-67
2023/10/13 09:34:50;;;;;;;17.83;5.73;;;;;;;;;;5058429;28;20423;-65
2023/10/13 09:37:20;;;;;;;16.23;6.18;;;;;;;;;;5059979;28;20415;-65
2023/10/13 09:39:51;;;;;;;16.30;5.87;;;;;;;;;;5063349;28;20448;-65
2023/10/13 09:42:23;;;;;;;13.82;5.47;;;;;;;;;;5064870;28;20862;-66
2023/10/13 09:44:55;;;;;;;12.98;5.63;;;;;;;;;;5059599;28;20415;-65
2023/10/13 09:47:29;;;;;;;13.88;5.55;;;;;;;;;;5059854;28;20435;-68
2023/10/13 09:49:58;;;;;;;15.25;6.05;;;;;;;;;;5065985;28;20452;-68
2023/10/13 09:52:26;;;;;;;18.67;6.45;;;;;;;;;;5059765;28;20423;-65
2023/10/13 09:54:59;;;;;;;15.77;5.70;;;;;;;;;;5063388;28;20408;-66
2023/10/13 09:57:34;;;;;;;15.50;6.13;;;;;;;;;;5064739;28;21061;-64
2023/10/13 10:00:07;;;;;;;17.20;5.70;;;;;;;;;;5068419;28;20400;-70
2023/10/13 10:02:34;;;;;;;14.93;6.00;;;;;;;;;;5064617;28;20506;-67
2023/10/13 10:05:13;;;;;;;16.17;5.75;;;;;;;;;;5065763;28;20418;-68
2023/10/13 10:07:39;;;;;;;13.10;5.63;;;;;;;;;;5065008;28;20939;-67
2023/10/13 10:10:08;;;;;;;13.25;5.80;;;;;;;;;;5066292;28;20447;-63
2023/10/13 10:12:39;;;;;;;12.17;5.80;;;;;;;;;;5063648;28;20445;-65
2023/10/13 10:15:28;;;;;;;14.45;6.10;;;;;;;;;;5062740;28;20416;-68
2023/10/13 10:17:55;;;;;;;15.30;5.85;;;;;;;;;;5064547;28;20755;-65
2023/10/13 10:20:39;;;;;;;14.07;6.40;;;;;;;;;;5062407;28;20850;-65
2023/10/13 10:23:09;;;;;;;13.52;5.88;;;;;;;;;;5057452;28;20850;-67
2023/10/13 10:25:37;;;;;;;12.52;5.80;;;;;;;;;;5061399;28;20428;-66
2023/10/13 10:28:07;;;;;;;14.65;6.50;;;;;;;;;;5055314;28;20591;-65
2023/10/13 10:30:35;;;;;;;11.97;6.20;;;;;;;;;;5061567;28;20411;-65
2023/10/13 10:33:08;;;;;;;12.77;5.80;;;;;;;;;;5055777;28;20866;-66
2023/10/13 10:35:35;;;;;;;12.30;6.10;;;;;;;;;;5058589;28;20582;-64
2023/10/13 10:38:13;;;;;;;14.25;6.25;;;;;;;;;;5060256;28;20411;-65
2023/10/13 10:40:52;;;;;;;15.38;6.05;;;;;;;;;;5065046;28;20417;-65
2023/10/13 10:43:21;;;;;;;13.32;6.75;;;;;;;;;;5059840;28;20459;-65
2023/10/13 10:45:50;;;;;;;13.95;6.28;;;;;;;;;;5069705;28;20446;-66
2023/10/13 10:48:21;;;;;;;15.43;6.15;;;;;;;;;;5064124;28;20400;-64
2023/10/13 10:50:54;;;;;;;14.90;7.80;;;;;;;;;;5063091;28;20408;-66
2023/10/13 10:53:32;;;;;;;12.37;6.50;;;;;;;;;;5062662;28;20407;-66
2023/10/13 10:56:08;;;;;;;13.65;6.47;;;;;;;;;;5062982;28;20483;-67
2023/10/13 10:58:43;;;;;;;12.10;6.60;;;;;;;;;;5062822;28;20420;-66
2023/10/13 11:01:11;;;;;;;12.52;6.90;;;;;;;;;;5051753;28;20811;-67
2023/10/13 11:03:41;;;;;;;14.93;6.70;;;;;;;;;;5051216;28;20413;-66
2023/10/13 11:06:15;;;;;;;14.27;7.07;;;;;;;;;;5051043;28;20848;-68
2023/10/13 11:08:43;;;;;;;15.73;6.85;;;;;;;;;;5051673;28;20504;-66
2023/10/13 11:11:17;;;;;;;15.97;7.10;;;;;;;;;;5053799;28;20425;-67
2023/10/13 11:13:51;;;;;;;10.33;6.83;;;;;;;;;;5055438;28;20475;-65
2023/10/13 11:16:24;;;;;;;14.82;6.53;;;;;;;;;;5063270;28;20421;-65
2023/10/13 11:19:01;;;;;;;15.38;6.72;;;;;;;;;;5059925;28;20437;-64
2023/10/13 11:21:30;;;;;;;13.13;7.50;;;;;;;;;;5053708;28;20418;-64
2023/10/13 11:23:59;;;;;;;16.35;6.85;;;;;;;;;;5066963;28;20415;-64
2023/10/13 11:26:34;;;;;;;14.98;7.47;;;;;;;;;;5059247;28;20409;-63
2023/10/13 11:29:10;;;;;;;16.83;7.38;;;;;;;;;;5066920;28;20973;-65
2023/10/13 11:31:38;;;;;;;12.60;7.00;;;;;;;;;;5061257;28;20418;-64
2023/10/13 11:34:06;;;;;;;13.45;7.05;;;;;;;;;;5067373;28;20827;-63
2023/10/13 11:36:34;;;;;;;14.07;6.90;;;;;;;;;;5050949;28;20488;-63
2023/10/13 11:39:01;;;;;;;15.27;7.35;;;;;;;;;;5050708;28;20421;-63
2023/10/13 11:41:34;;;;;;;14.50;6.80;;;;;;;;;;5050755;28;20826;-63
2023/10/13 11:44:23;;;;;;;19.05;6.88;;;;;;;;;;5050424;28;20432;-63
2023/10/13 11:46:55;;;;;;;14.73;6.80;;;;;;;;;;5061015;28;20416;-63
2023/10/13 11:49:34;;;;;;;16.15;6.95;;;;;;;;;;5063051;28;20408;-63
2023/10/13 11:52:15;;;;;;;15.52;6.70;;;;;;;;;;5061032;28;20416;-63
2023/10/13 11:54:43;;;;;;;18.27;7.15;;;;;;;;;;5061327;28;20500;-63
2023/10/13 11:57:10;;;;;;;20.02;6.85;;;;;;;;;;5065642;28;20443;-63
2023/10/13 11:59:45;;;;;;;18.33;7.27;;;;;;;;;;5059270;28;20542;-63
2023/10/13 12:04:59;;;;;;;16.10;7.10;;;;;;;;;;5067035;28;20441;-63
2023/10/13 12:07:42;;;;;;;17.80;6.72;;;;;;;;;;5061612;28;20411;-64
2023/10/13 12:10:16;;;;;;;14.73;7.07;;;;;;;;;;5062022;28;20407;-63
2023/10/13 12:12:46;;;;;;;14.00;7.03;;;;;;;;;;5060615;28;20407;-64
2023/10/13 12:15:25;;;;;;;16.43;6.83;;;;;;;;;;5061639;28;20423;-64
2023/10/13 12:17:52;;;;;;;12.32;6.60;;;;;;;;;;5059378;28;20427;-63
2023/10/13 12:20:32;;;;;;;16.08;6.50;;;;;;;;;;5062703;28;20428;-64
2023/10/13 12:23:09;;;;;;;19.67;7.10;;;;;;;;;;5064201;28;20407;-64
2023/10/13 12:25:44;;;;;;;16.35;6.70;;;;;;;;;;5065287;28;20449;-63
2023/10/13 12:28:18;;;;;;;16.50;6.33;;;;;;;;;;5059349;28;20414;-64
2023/10/13 12:30:51;;;;;;;17.25;6.85;;;;;;;;;;5058877;28;20407;-64
2023/10/13 12:33:24;;;;;;;15.75;6.68;;;;;;;;;;5065755;28;20858;-64
2023/10/13 12:36:03;;;;;;;16.37;6.20;;;;;;;;;;5070209;28;20419;-64
2023/10/13 12:38:50;;;;;;;16.90;6.82;;;;;;;;;;5063352;28;20450;-68
2023/10/13 12:49:49;;;;;;;16.80;6.07;;;;;;;;;;5059479;28;20396;-63
2023/10/13 12:52:18;;;;;;;16.70;6.13;;;;;;;;;;5059056;28;20879;-64
2023/10/13 12:54:47;;;;;;;12.50;5.90;;;;;;;;;;5064196;28;20501;-66
2023/10/13 12:57:14;;;;;;;15.23;6.17;;;;;;;;;;5057160;28;20415;-65
2023/10/13 12:59:41;;;;;;;12.25;6.22;;;;;;;;;;5059082;28;20887;-65
2023/10/13 13:02:14;;;;;;;17.80;6.53;;;;;;;;;;5058169;28;20416;-65
2023/10/13 13:04:44;;;;;;;12.93;6.03;;;;;;;;;;5049238;28;20409;-65
2023/10/13 13:07:13;;;;;;;17.35;5.95;;;;;;;;;;5048963;28;20417;-64
2023/10/13 13:09:40;;;;;;;14.70;6.13;;;;;;;;;;5054154;28;20421;-65
2023/10/13 13:12:07;;;;;;;16.77;6.13;;;;;;;;;;5059422;28;20441;-65
2023/10/13 13:14:34;;;;;;;14.38;5.68;;;;;;;;;;5060857;28;20413;-66
2023/10/13 13:17:05;;;;;;;14.93;5.75;;;;;;;;;;5049562;28;20854;-65
2023/10/13 13:19:35;;;;;;;16.25;6.15;;;;;;;;;;5048520;28;20511;-66
2023/10/13 13:22:03;;;;;;;18.33;5.70;;;;;;;;;;5049672;28;20799;-66
2023/10/13 13:24:30;;;;;;;16.45;5.55;;;;;;;;;;5065759;28;20417;-66
2023/10/13 13:27:02;;;;;;;16.35;5.57;;;;;;;;;;5061937;28;20414;-65
2023/10/13 13:29:30;;;;;;;11.77;5.40;;;;;;;;;;5059532;28;20416;-64
2023/10/13 13:31:57;;;;;;;20.77;6.60;;;;;;;;;;5065560;28;20484;-65
2023/10/13 13:34:24;;;;;;;16.77;5.57;;;;;;;;;;5061646;28;20780;-65
2023/10/13 13:36:53;;;;;;;18.77;5.97;;;;;;;;;;5061846;28;20446;-65
2023/10/13 13:39:30;;;;;;;15.93;5.97;;;;;;;;;;5061391;28;20429;-64
2023/10/13 13:41:57;;;;;;;17.85;6.15;;;;;;;;;;5062233;28;20459;-65
2023/10/13 13:44:28;;;;;;;17.67;5.70;;;;;;;;;;5062118;28;20422;-65
2023/10/13 13:46:57;;;;;;;17.35;6.00;;;;;;;;;;5064773;28;20747;-64
2023/10/13 13:49:29;;;;;;;15.98;5.68;;;;;;;;;;5062446;28;20433;-67
2023/10/13 13:52:04;;;;;;;17.60;6.03;;;;;;;;;;5061236;28;20475;-67
2023/10/13 13:54:31;;;;;;;20.00;5.90;;;;;;;;;;5068405;28;20514;-66
2023/10/13 13:56:58;;;;;;;16.20;5.80;;;;;;;;;;5064820;28;20897;-65
2023/10/13 13:59:25;;;;;;;19.80;5.97;;;;;;;;;;5063592;28;20480;-64
2023/10/13 14:01:52;;;;;;;16.55;6.07;;;;;;;;;;5062593;28;20759;-64
2023/10/13 14:04:20;;;;;;;16.52;6.03;;;;;;;;;;5060301;28;20507;-65
2023/10/13 14:06:47;;;;;;;19.05;6.10;;;;;;;;;;5069287;28;20479;-64
2023/10/13 14:09:15;;;;;;;15.25;5.90;;;;;;;;;;5064728;28;20411;-64
2023/10/13 14:14:33;;;;;;;17.33;6.18;;;;;;;;;;5062979;28;20467;-65
2023/10/13 14:17:06;;;;;;;18.85;6.05;;;;;;;;;;5067327;28;20435;-64
2023/10/13 14:19:34;;;;;;;18.65;5.72;;;;;;;;;;5060254;28;20436;-64
2023/10/13 14:22:06;;;;;;;19.27;6.03;;;;;;;;;;5052059;28;20466;-64
2023/10/13 14:24:35;;;;;;;22.02;6.28;;;;;;;;;;5064529;28;20409;-64
2023/10/13 14:27:08;;;;;;;15.55;5.78;;;;;;;;;;5067169;28;20407;-65
2023/10/13 14:29:39;;;;;;;19.02;6.13;;;;;;;;;;5066562;28;20413;-65
2023/10/13 14:32:07;;;;;;;13.90;5.45;;;;;;;;;;5063320;28;20411;-65
2023/10/13 14:34:35;;;;;;;15.07;5.95;;;;;;;;;;5061125;28;20791;-66
2023/10/13 14:37:04;;;;;;;20.80;6.15;;;;;;;;;;5063562;28;20435;-65
2023/10/13 14:39:34;;;;;;;19.30;6.13;;;;;;;;;;5068428;28;20464;-66
2023/10/13 14:42:05;;;;;;;16.77;5.50;;;;;;;;;;5060975;28;20443;-67
2023/10/13 14:44:32;;;;;;;17.83;5.85;;;;;;;;;;5062802;28;20423;-64
2023/10/13 14:47:00;;;;;;;16.37;6.47;;;;;;;;;;5060806;28;20413;-64
2023/10/13 14:49:27;;;;;;;18.38;5.97;;;;;;;;;;5063082;28;20982;-64
2023/10/13 14:51:55;;;;;;;19.40;6.13;;;;;;;;;;5064052;28;20484;-64
2023/10/13 14:54:32;;;;;;;18.55;6.07;;;;;;;;;;5064496;28;20407;-65
2023/10/13 14:56:59;;;;;;;15.10;5.55;;;;;;;;;;5062957;28;20499;-64
2023/10/13 14:59:32;;;;;;;17.30;5.95;;;;;;;;;;5060142;28;20422;-66
2023/10/13 15:01:59;;;;;;;15.43;5.90;;;;;;;;;;5060248;28;20417;-65
2023/10/13 15:04:28;;;;;;;18.63;5.97;;;;;;;;;;5061931;28;20832;-65
2023/10/13 15:06:56;;;;;;;17.40;5.93;;;;;;;;;;5061474;28;20429;-66
2023/10/13 15:09:24;;;;;;;16.60;5.93;;;;;;;;;;5059247;28;20454;-65
2023/10/13 15:11:53;;;;;;;14.82;5.22;;;;;;;;;;5062036;28;20419;-67
2023/10/13 15:14:22;;;;;;;15.47;5.60;;;;;;;;;;5061709;28;20427;-67
2023/10/13 15:16:52;;;;;;;18.10;5.85;;;;;;;;;;5060128;28;20512;-67
2023/10/13 15:19:19;;;;;;;16.73;5.43;;;;;;;;;;5060897;28;20782;-67
2023/10/13 15:21:49;;;;;;;13.23;5.65;;;;;;;;;;5061980;28;20865;-66
2023/10/13 15:24:16;;;;;;;14.88;5.63;;;;;;;;;;5061480;28;20415;-66
2023/10/13 15:26:47;;;;;;;17.35;5.82;;;;;;;;;;5060662;28;20498;-66
2023/10/13 15:29:16;;;;;;;24.08;5.88;;;;;;;;;;5058812;28;20441;-66
2023/10/13 15:31:54;;;;;;;18.60;5.63;;;;;;;;;;5060474;28;20895;-65
2023/10/13 15:34:23;;;;;;;17.77;5.40;;;;;;;;;;5061454;28;20920;-66
2023/10/13 15:36:54;;;;;;;14.75;5.28;;;;;;;;;;5060412;28;20417;-65
2023/10/13 15:39:24;;;;;;;14.95;5.20;;;;;;;;;;5058463;28;20425;-65
2023/10/13 15:41:53;;;;;;;14.90;5.72;;;;;;;;;;5061333;28;20415;-65
2023/10/13 15:44:24;;;;;;;14.30;5.60;;;;;;;;;;5061044;28;20971;-66
2023/10/13 15:46:53;;;;;;;18.65;5.65;;;;;;;;;;5058871;28;20765;-66
2023/10/13 15:49:22;;;;;;;14.70;5.40;;;;;;;;;;5059615;28;20793;-65
2023/10/13 15:51:49;;;;;;;13.30;5.50;;;;;;;;;;5061432;28;20458;-66
2023/10/13 15:54:18;;;;;;;15.35;5.70;;;;;;;;;;5060905;28;20486;-66
2023/10/13 15:56:45;;;;;;;15.80;5.50;;;;;;;;;;5061393;28;20565;-66
2023/10/13 15:59:12;;;;;;;14.40;5.20;;;;;;;;;;5061307;28;20789;-66
2023/10/13 16:01:40;;;;;;;14.47;5.20;;;;;;;;;;5059426;28;20512;-67
2023/10/13 16:04:11;;;;;;;18.88;5.75;;;;;;;;;;5059028;28;20415;-66
2023/10/13 16:06:40;;;;;;;19.35;5.40;;;;;;;;;;5051789;28;20409;-66
2023/10/13 16:09:13;;;;;;;16.95;5.47;;;;;;;;;;5050874;28;20435;-66
2023/10/13 16:11:42;;;;;;;18.23;6.00;;;;;;;;;;5050870;28;20500;-67
2023/10/13 16:14:15;;;;;;;12.88;5.53;;;;;;;;;;5053283;28;20452;-66
2023/10/13 16:16:46;;;;;;;13.77;5.53;;;;;;;;;;5049690;28;20820;-65
2023/10/13 16:19:14;;;;;;;14.43;5.88;;;;;;;;;;5059538;28;20506;-66
2023/10/13 16:21:42;;;;;;;17.60;5.75;;;;;;;;;;5058639;28;20931;-65
2023/10/13 16:24:11;;;;;;;14.40;5.60;;;;;;;;;;5060890;28;20763;-68
2023/10/13 16:26:40;;;;;;;14.57;5.65;;;;;;;;;;5059488;28;20484;-67
2023/10/13 16:29:07;;;;;;;17.35;5.82;;;;;;;;;;5057563;28;20421;-69
2023/10/13 16:31:34;;;;;;;13.60;5.30;;;;;;;;;;5060760;28;20404;-68
2023/10/13 16:34:02;;;;;;;15.35;5.70;;;;;;;;;;5059716;28;20490;-68
2023/10/13 16:36:30;;;;;;;13.50;5.63;;;;;;;;;;5057650;28;20432;-67
2023/10/13 16:38:58;;;;;;;14.65;5.63;;;;;;;;;;5060181;28;20424;-68
2023/10/13 16:41:26;;;;;;;16.23;5.40;;;;;;;;;;5059881;28;20790;-68